Time;durP1;ratioP1;P1;durP2;ratioP2;P2;SDS_P1;SDS_P2;PMS_P1;PMS_P2;Temp;Humidity;BMP_temperature;BMP_pressure;BME280_temperature;BME280_humidity;BME280_pressure;Samples;Min_cycle;Max_cycle;Signal;HPM_P1;HPM_P2
2022/10/25 00:01:15;;;;;;;;;4.67;0.33;;;;;16.36;70.47;101099.72;4996448;27;46425;-67
2022/10/25 00:03:41;;;;;;;;;5.33;3.00;;;;;16.39;70.56;101099.66;4993051;27;45366;-65
2022/10/25 00:06:09;;;;;;;;;4.00;1.33;;;;;16.32;70.77;101097.13;4991808;27;45560;-66
2022/10/25 00:08:35;;;;;;;;;2.00;1.33;;;;;16.32;70.53;101113.00;4995288;27;45358;-63
2022/10/25 00:11:01;;;;;;;;;4.00;1.00;;;;;16.35;70.60;101108.53;4991154;27;46085;-64
2022/10/25 00:13:27;;;;;;;;;3.33;1.67;;;;;16.33;70.77;101117.38;4976102;27;45410;-65
2022/10/25 00:15:52;;;;;;;;;1.00;1.00;;;;;16.32;71.00;101114.75;4976881;27;45304;-65
2022/10/25 00:18:18;;;;;;;;;3.00;0.00;;;;;16.31;70.77;101113.88;4992103;27;45693;-64
2022/10/25 00:20:45;;;;;;;;;3.00;1.00;;;;;16.29;70.84;101112.16;4995062;27;46208;-65
2022/10/25 00:23:12;;;;;;;;;1.00;1.00;;;;;16.26;70.92;101106.94;4991612;27;45511;-66
2022/10/25 00:25:38;;;;;;;;;1.00;1.00;;;;;16.15;71.05;101095.63;4992583;27;45391;-66
2022/10/25 00:28:03;;;;;;;;;2.67;1.33;;;;;16.20;71.10;101105.22;4992140;27;45468;-64
2022/10/25 00:30:29;;;;;;;;;4.67;2.00;;;;;16.18;71.45;101103.50;4973526;27;47715;-65
2022/10/25 00:32:55;;;;;;;;;2.00;0.00;;;;;16.14;71.26;101101.84;4991202;27;45770;-65
2022/10/25 00:35:20;;;;;;;;;3.00;1.00;;;;;16.19;70.97;101106.16;4979347;27;45366;-65
2022/10/25 00:37:46;;;;;;;;;2.00;1.00;;;;;16.18;71.34;101109.66;4974138;27;45300;-62
2022/10/25 00:40:11;;;;;;;;;2.00;2.00;;;;;16.17;71.27;101109.72;4992156;27;45354;-64
2022/10/25 00:42:37;;;;;;;;;3.33;1.00;;;;;16.10;71.69;101115.06;4996088;27;45350;-65
2022/10/25 00:45:16;;;;;;;;;3.00;1.00;;;;;16.06;71.96;101105.47;4978337;27;45322;-65
2022/10/25 00:47:49;;;;;;;;;2.00;2.00;;;;;16.06;71.67;101112.50;4978306;28;45676;-66
2022/10/25 00:50:41;;;;;;;;;3.33;1.00;;;;;16.12;71.43;101117.69;4991261;27;45737;-65
2022/10/25 00:53:12;;;;;;;;;3.67;1.00;;;;;16.11;72.01;101113.28;4990974;27;45780;-66
2022/10/25 00:55:44;;;;;;;;;0.00;0.00;;;;;16.04;71.40;101112.53;4977761;27;46282;-65
2022/10/25 00:58:24;;;;;;;;;1.00;0.33;;;;;16.12;71.40;101123.00;4991497;27;45429;-65
2022/10/25 01:00:49;;;;;;;;;3.00;1.00;;;;;16.13;71.63;101129.13;4992708;27;45765;-64
2022/10/25 01:03:19;;;;;;;;;2.67;1.00;;;;;16.12;71.70;101130.91;4993678;27;45482;-65
2022/10/25 01:05:45;;;;;;;;;1.00;1.00;;;;;16.05;71.79;101124.84;4991116;27;45970;-66
2022/10/25 01:08:12;;;;;;;;;0.00;0.00;;;;;16.05;72.01;101126.63;4991422;27;45339;-65
2022/10/25 01:10:38;;;;;;;;;1.33;1.33;;;;;16.05;71.85;101132.78;4990738;27;45872;-64
2022/10/25 01:13:04;;;;;;;;;2.67;1.00;;;;;15.96;72.35;101124.97;4990512;27;45925;-64
2022/10/25 01:15:43;;;;;;;;;5.67;2.00;;;;;15.89;72.24;101108.31;4982156;27;45349;-65
2022/10/25 01:18:17;;;;;;;;;2.00;1.33;;;;;15.91;72.18;101129.44;4990592;27;45492;-66
2022/10/25 01:20:55;;;;;;;;;2.00;2.00;;;;;15.91;72.45;101140.00;4990339;27;45791;-66
2022/10/25 01:23:39;;;;;;;;;0.00;0.00;;;;;15.94;72.42;101137.31;4991099;27;45492;-65
2022/10/25 01:26:40;;;;;;;;;0.67;0.67;;;;;15.90;72.54;101133.88;4991792;27;45724;-65
2022/10/25 01:29:32;;;;;;;;;3.00;1.00;;;;;15.94;72.51;101131.16;4990774;27;45696;-65
2022/10/25 01:32:06;;;;;;;;;1.00;1.00;;;;;15.87;72.66;101120.72;4995370;27;45489;-65
2022/10/25 01:34:40;;;;;;;;;2.00;1.00;;;;;15.93;72.04;101126.78;4981599;27;45394;-65
2022/10/25 01:37:19;;;;;;;;;1.00;1.00;;;;;15.89;72.71;101126.81;4995186;27;45467;-64
2022/10/25 01:39:56;;;;;;;;;1.00;1.00;;;;;15.92;72.33;101133.81;4974001;27;45731;-65
2022/10/25 01:42:34;;;;;;;;;0.67;0.00;;;;;15.90;72.42;101127.72;4974356;27;47042;-65
2022/10/25 01:45:25;;;;;;;;;1.00;1.00;;;;;15.87;72.65;101120.72;4992670;27;45413;-64
2022/10/25 01:47:57;;;;;;;;;4.00;1.00;;;;;15.81;72.75;101125.19;4991330;27;45662;-64
2022/10/25 01:50:26;;;;;;;;;1.33;1.00;;;;;15.81;72.92;101133.13;4977533;28;45653;-65
2022/10/25 01:52:51;;;;;;;;;1.00;1.00;;;;;15.72;73.08;101125.31;4994845;27;46247;-66
2022/10/25 01:55:21;;;;;;;;;3.33;0.00;;;;;15.74;73.59;101134.09;4992746;27;45335;-65
2022/10/25 01:58:15;;;;;;;;;3.67;0.67;;;;;15.60;73.25;101124.53;4972783;28;45754;-65
2022/10/25 02:01:09;;;;;;;;;3.00;1.33;;;;;15.65;73.76;101135.03;4975258;28;45397;-65
2022/10/25 02:04:01;;;;;;;;;2.00;1.00;;;;;15.73;73.12;101129.69;4994432;27;45523;-66
2022/10/25 02:06:38;;;;;;;;;3.00;1.00;;;;;15.82;72.91;101132.22;4984752;27;45445;-64
2022/10/25 02:09:21;;;;;;;;;1.67;1.00;;;;;15.78;73.26;101117.28;4970857;27;45340;-65
2022/10/25 02:11:50;;;;;;;;;3.00;1.00;;;;;15.78;73.04;101134.03;4983904;27;45769;-63
2022/10/25 02:14:39;;;;;;;;;1.67;1.00;;;;;15.70;73.45;101135.88;4988613;27;45451;-64
2022/10/25 02:17:05;;;;;;;;;5.00;0.67;;;;;15.68;73.20;101129.72;4970852;27;45403;-64
2022/10/25 02:19:54;;;;;;;;;0.67;0.00;;;;;15.66;73.47;101129.75;4979417;27;45573;-64
2022/10/25 02:22:25;;;;;;;;;1.00;1.00;;;;;15.71;73.22;101142.03;4994757;27;45538;-64
2022/10/25 02:24:52;;;;;;;;;1.00;1.00;;;;;15.71;73.31;101140.28;4977018;28;45384;-65
2022/10/25 02:27:22;;;;;;;;;2.00;1.00;;;;;15.66;73.38;101134.13;4974256;28;45632;-64
2022/10/25 02:29:49;;;;;;;;;0.33;0.33;;;;;15.71;73.11;101147.31;4990038;27;45664;-64
2022/10/25 02:32:14;;;;;;;;;2.00;1.00;;;;;15.70;73.53;101135.88;4979264;28;45411;-64
2022/10/25 02:34:40;;;;;;;;;2.33;2.00;;;;;15.65;73.30;101129.75;4971499;28;46594;-64
2022/10/25 02:37:07;;;;;;;;;3.67;2.00;;;;;15.64;73.41;101141.22;4993343;27;45501;-65
2022/10/25 02:39:33;;;;;;;;;1.00;1.00;;;;;15.70;73.38;101151.72;4994574;27;45274;-64
2022/10/25 02:42:02;;;;;;;;;1.00;1.00;;;;;15.74;73.19;101142.00;4965551;27;45561;-65
2022/10/25 02:44:27;;;;;;;;;0.00;0.00;;;;;15.80;72.77;101141.91;4992746;27;45473;-65
2022/10/25 02:46:53;;;;;;;;;0.67;0.67;;;;;15.62;72.89;101108.69;4993374;27;45579;-65
2022/10/25 02:49:19;;;;;;;;;3.00;1.67;;;;;15.82;73.12;101148.06;4994462;27;45476;-65
2022/10/25 02:51:44;;;;;;;;;1.33;1.00;;;;;15.84;73.08;101151.56;4979773;27;45331;-65
2022/10/25 02:54:10;;;;;;;;;1.67;1.00;;;;;15.81;73.31;101149.81;4996669;27;45481;-65
2022/10/25 02:56:37;;;;;;;;;2.00;0.33;;;;;15.82;73.06;101134.84;4979760;27;45508;-65
2022/10/25 02:59:02;;;;;;;;;1.00;0.67;;;;;15.85;72.61;101125.13;4996426;27;45430;-65
2022/10/25 03:01:28;;;;;;;;;1.00;1.00;;;;;15.88;72.49;101129.50;4993029;27;45532;-65
2022/10/25 03:03:54;;;;;;;;;1.00;1.00;;;;;15.91;72.54;101132.09;4992757;27;45440;-65
2022/10/25 03:06:19;;;;;;;;;3.00;0.00;;;;;16.00;72.39;101134.59;4977124;28;45362;-65
2022/10/25 03:08:45;;;;;;;;;1.33;1.00;;;;;15.97;72.75;101133.75;4997128;27;45515;-66
2022/10/25 03:11:12;;;;;;;;;0.33;0.33;;;;;15.97;72.26;101139.94;4980125;28;45477;-63
2022/10/25 03:13:37;;;;;;;;;1.67;1.00;;;;;15.94;72.69;101142.59;4996325;27;46116;-63
2022/10/25 03:16:03;;;;;;;;;1.00;1.00;;;;;16.01;72.48;101143.41;4992794;27;45440;-65
2022/10/25 03:18:29;;;;;;;;;3.00;1.00;;;;;15.96;72.59;101130.25;4976408;28;45612;-64
2022/10/25 03:20:59;;;;;;;;;1.00;1.00;;;;;16.01;72.33;101146.03;4996853;27;45498;-65
2022/10/25 03:23:26;;;;;;;;;2.33;1.00;;;;;15.93;72.34;101127.66;4975568;27;45743;-64
2022/10/25 03:25:53;;;;;;;;;2.00;1.00;;;;;15.95;72.40;101147.00;4992582;27;45343;-65
2022/10/25 03:28:18;;;;;;;;;2.00;1.67;;;;;15.96;72.34;101143.47;4992353;27;45504;-64
2022/10/25 03:30:44;;;;;;;;;2.00;1.00;;;;;15.94;72.60;101162.88;4992534;27;45828;-67
2022/10/25 03:33:09;;;;;;;;;4.33;1.00;;;;;15.87;72.94;101157.69;4974657;28;46749;-65
2022/10/25 03:35:35;;;;;;;;;3.00;1.67;;;;;15.77;73.17;101158.69;4994756;27;45331;-65
2022/10/25 03:38:00;;;;;;;;;2.00;1.00;;;;;15.80;73.19;101158.66;4979220;27;45368;-63
2022/10/25 03:40:26;;;;;;;;;1.33;1.33;;;;;15.73;73.39;101158.72;4997051;27;45436;-64
2022/10/25 03:42:52;;;;;;;;;2.00;2.00;;;;;15.63;73.58;101160.59;4992780;27;46597;-66
2022/10/25 03:45:18;;;;;;;;;2.67;2.00;;;;;15.55;74.07;101165.09;4974730;28;45783;-66
2022/10/25 03:47:44;;;;;;;;;2.00;2.00;;;;;15.54;74.58;101169.50;4992466;27;45489;-67
2022/10/25 03:50:10;;;;;;;;;2.33;1.67;;;;;15.54;74.32;101174.78;4976999;28;45414;-66
2022/10/25 03:52:35;;;;;;;;;2.00;2.00;;;;;15.52;74.21;101173.03;4991514;27;46794;-65
2022/10/25 03:55:02;;;;;;;;;5.67;2.00;;;;;15.46;74.55;101172.22;4974321;28;45408;-63
2022/10/25 03:57:28;;;;;;;;;2.00;2.00;;;;;15.29;74.99;101154.84;4992426;27;45874;-64
2022/10/25 03:59:53;;;;;;;;;4.00;2.33;;;;;15.35;74.71;101174.13;4974753;27;45613;-64
2022/10/25 04:02:19;;;;;;;;;5.33;3.00;;;;;15.37;74.92;101174.94;4974495;28;45796;-67
2022/10/25 04:04:44;;;;;;;;;4.00;3.00;;;;;15.30;75.23;101170.63;4992033;27;45771;-64
2022/10/25 04:07:10;;;;;;;;;3.00;2.00;;;;;15.34;75.07;101182.03;4973982;27;45742;-64
2022/10/25 04:09:36;;;;;;;;;5.00;3.67;;;;;15.33;75.22;101169.72;4954801;28;45430;-64
2022/10/25 04:12:01;;;;;;;;;2.33;2.33;;;;;15.30;75.02;101168.00;4988089;27;45408;-64
2022/10/25 04:14:27;;;;;;;;;4.00;3.00;;;;;15.34;75.09;101172.34;4974717;28;45391;-65
2022/10/25 04:16:52;;;;;;;;;4.00;2.33;;;;;15.29;75.15;101158.34;4992400;27;45462;-65
2022/10/25 04:19:18;;;;;;;;;1.00;1.00;;;;;15.30;75.25;101153.94;4974412;28;45642;-64
2022/10/25 04:21:43;;;;;;;;;3.00;2.00;;;;;15.37;75.23;101163.53;4991960;27;46689;-64
2022/10/25 04:24:09;;;;;;;;;3.67;2.00;;;;;15.42;75.27;101166.97;4991839;27;45596;-64
2022/10/25 04:26:35;;;;;;;;;5.67;3.00;;;;;15.47;75.00;101173.06;4992210;27;45772;-65
2022/10/25 04:29:02;;;;;;;;;2.67;2.67;;;;;15.45;75.23;101172.25;4996306;27;45425;-65
2022/10/25 04:31:28;;;;;;;;;2.33;2.33;;;;;15.42;74.78;101165.25;4996277;27;46321;-64
2022/10/25 04:33:55;;;;;;;;;4.00;2.00;;;;;15.41;75.03;101167.88;4996263;27;45323;-65
2022/10/25 04:36:21;;;;;;;;;2.67;2.00;;;;;15.36;75.55;101181.13;4996137;28;45369;-66
2022/10/25 04:38:48;;;;;;;;;1.67;1.33;;;;;15.38;75.70;101173.22;4991331;27;45599;-64
2022/10/25 04:41:14;;;;;;;;;4.00;2.00;;;;;15.44;75.67;101183.69;4992082;27;45450;-65
2022/10/25 04:43:43;;;;;;;;;2.33;2.33;;;;;15.43;75.40;101181.94;4994562;27;45316;-65
2022/10/25 04:46:09;;;;;;;;;2.00;2.00;;;;;15.38;75.52;101175.84;4991601;27;45383;-65
2022/10/25 04:48:39;;;;;;;;;1.00;1.00;;;;;15.44;75.63;101176.63;4992281;27;45751;-65
2022/10/25 04:51:06;;;;;;;;;1.33;1.33;;;;;15.50;75.75;101186.25;4991507;27;45426;-63
2022/10/25 04:53:31;;;;;;;;;4.00;2.67;;;;;15.39;75.89;101175.81;4991193;27;45512;-65
2022/10/25 04:55:59;;;;;;;;;2.00;2.00;;;;;15.39;76.20;101180.22;4991849;27;45422;-64
2022/10/25 04:58:25;;;;;;;;;2.33;2.33;;;;;15.40;75.76;101185.50;4975944;27;45439;-64
2022/10/25 05:00:52;;;;;;;;;5.67;2.00;;;;;15.41;75.97;101184.59;4995717;27;45679;-65
2022/10/25 05:03:18;;;;;;;;;4.00;2.33;;;;;15.38;76.34;101181.13;4977313;27;45352;-65
2022/10/25 05:05:44;;;;;;;;;3.67;2.67;;;;;15.32;76.54;101182.03;4992830;27;45421;-64
2022/10/25 05:08:09;;;;;;;;;4.00;3.00;;;;;15.31;76.40;101188.22;4991980;27;45414;-64
2022/10/25 05:10:35;;;;;;;;;5.33;5.00;;;;;15.37;76.49;101190.78;4995649;27;46146;-66
2022/10/25 05:13:01;;;;;;;;;6.33;5.67;;;;;15.35;76.72;101187.31;4977769;28;45357;-65
2022/10/25 05:15:27;;;;;;;;;5.00;3.00;;;;;15.31;76.77;101188.22;4995567;27;46033;-65
2022/10/25 05:18:00;;;;;;;;;2.33;2.33;;;;;15.23;77.30;101192.69;4975734;28;45459;-64
2022/10/25 05:20:27;;;;;;;;;3.00;3.00;;;;;15.25;77.10;101191.78;4990946;27;45849;-64
2022/10/25 05:22:53;;;;;;;;;4.00;3.33;;;;;15.18;77.69;101182.19;4991435;27;45510;-64
2022/10/25 05:25:19;;;;;;;;;7.33;3.67;;;;;15.14;77.46;101193.69;4991325;27;45708;-65
2022/10/25 05:27:44;;;;;;;;;5.00;4.00;;;;;15.10;77.58;101186.66;4973861;28;46057;-65
2022/10/25 05:30:10;;;;;;;;;8.00;4.00;;;;;15.16;77.71;101197.19;4991016;27;45429;-64
2022/10/25 05:32:36;;;;;;;;;5.00;5.00;;;;;15.14;77.89;101201.59;4991104;27;45645;-65
2022/10/25 05:35:02;;;;;;;;;4.33;3.00;;;;;15.05;78.16;101193.75;4991293;27;45599;-64
2022/10/25 05:37:28;;;;;;;;;6.33;5.67;;;;;15.15;78.26;101205.97;4991036;27;45781;-65
2022/10/25 05:39:53;;;;;;;;;6.67;4.00;;;;;15.16;78.19;101197.19;4991275;27;45486;-65
2022/10/25 05:42:19;;;;;;;;;5.00;3.33;;;;;15.25;77.79;101207.63;4991239;27;45488;-65
2022/10/25 05:44:45;;;;;;;;;4.33;3.00;;;;;15.23;77.21;101177.75;4973322;28;45581;-65
2022/10/25 05:47:12;;;;;;;;;3.00;3.00;;;;;15.31;77.53;101198.78;4994284;27;45560;-65
2022/10/25 05:49:39;;;;;;;;;5.00;4.00;;;;;15.34;77.70;101201.38;4995258;27;45568;-65
2022/10/25 05:52:06;;;;;;;;;4.00;4.00;;;;;15.33;77.31;101202.28;4995325;27;45635;-65
2022/10/25 05:54:31;;;;;;;;;4.00;3.00;;;;;15.36;77.31;101194.31;4993589;27;45465;-65
2022/10/25 05:56:57;;;;;;;;;6.00;3.00;;;;;15.34;77.67;101195.25;4991345;27;46099;-64
2022/10/25 05:59:23;;;;;;;;;7.67;3.33;;;;;15.31;77.56;101195.28;4991080;27;46047;-65
2022/10/25 06:01:48;;;;;;;;;10.00;3.67;;;;;15.32;78.15;101187.31;4990722;27;45381;-66
2022/10/25 06:04:15;;;;;;;;;6.33;4.00;;;;;15.32;77.96;101197.88;4968506;28;45420;-66
2022/10/25 06:06:42;;;;;;;;;6.00;4.00;;;;;15.30;77.75;101197.03;4989239;27;45539;-65
2022/10/25 06:09:09;;;;;;;;;5.33;2.33;;;;;15.37;77.25;101196.06;4990469;27;46334;-67
2022/10/25 06:11:35;;;;;;;;;5.00;3.33;;;;;15.39;77.08;101198.69;4974465;27;45962;-65
2022/10/25 06:14:01;;;;;;;;;5.33;5.33;;;;;15.37;76.86;101189.91;4994535;27;45350;-66
2022/10/25 06:16:27;;;;;;;;;4.00;4.00;;;;;15.46;76.61;101205.66;4995104;27;45536;-64
2022/10/25 06:18:53;;;;;;;;;9.00;4.00;;;;;15.51;76.00;101201.19;4976573;27;47777;-65
2022/10/25 06:21:25;;;;;;;;;4.33;4.00;;;;;15.49;76.36;101197.69;4990576;27;45483;-65
2022/10/25 06:23:51;;;;;;;;;4.00;3.00;;;;;15.58;76.18;101212.56;4991584;27;45576;-65
2022/10/25 06:26:22;;;;;;;;;3.00;3.00;;;;;15.59;75.90;101199.38;4992700;27;45520;-64
2022/10/25 06:28:51;;;;;;;;;4.00;3.00;;;;;15.55;75.94;101200.28;4972334;28;45854;-63
2022/10/25 06:31:18;;;;;;;;;4.67;3.00;;;;;15.61;75.88;101209.88;4972245;27;45455;-64
2022/10/25 06:33:44;;;;;;;;;5.33;3.00;;;;;15.53;75.75;101212.63;4990034;27;45827;-65
2022/10/25 06:36:16;;;;;;;;;4.00;4.00;;;;;15.57;76.02;101218.75;4972521;28;45556;-64
2022/10/25 06:38:45;;;;;;;;;5.00;2.00;;;;;15.55;75.92;101225.81;4989794;27;45764;-67
2022/10/25 06:41:19;;;;;;;;;5.33;2.00;;;;;15.51;75.56;101224.09;4972489;28;45329;-66
2022/10/25 06:43:45;;;;;;;;;4.00;2.00;;;;;15.54;75.95;101222.31;4990238;27;45368;-65
2022/10/25 06:46:19;;;;;;;;;8.67;3.67;;;;;15.53;75.99;101224.97;4972244;28;45789;-65
2022/10/25 06:48:44;;;;;;;;;6.00;3.00;;;;;15.41;76.09;101216.25;4994578;27;46105;-64
2022/10/25 06:51:10;;;;;;;;;4.33;2.00;;;;;15.50;76.14;101223.22;4992261;27;45268;-63
2022/10/25 06:53:37;;;;;;;;;4.00;3.00;;;;;15.45;75.72;101218.00;4998827;28;45582;-65
2022/10/25 06:56:05;;;;;;;;;2.67;2.67;;;;;15.42;75.97;101222.41;4992660;27;45493;-65
2022/10/25 06:58:32;;;;;;;;;6.67;2.33;;;;;15.40;75.89;101219.81;4993198;27;46619;-65
2022/10/25 07:01:01;;;;;;;;;2.33;2.00;;;;;15.56;75.63;101231.06;4989313;27;45452;-65
2022/10/25 07:03:30;;;;;;;;;4.33;2.67;;;;;15.63;74.94;101223.94;4970590;28;45363;-65
2022/10/25 07:06:02;;;;;;;;;6.00;2.00;;;;;15.76;74.67;101228.25;4980894;27;45252;-64
2022/10/25 07:08:28;;;;;;;;;6.00;2.33;;;;;15.81;74.27;101226.44;4976738;28;45403;-65
2022/10/25 07:10:54;;;;;;;;;3.33;3.00;;;;;15.87;74.00;101230.75;4994301;27;45504;-64
2022/10/25 07:13:20;;;;;;;;;3.00;2.67;;;;;15.88;73.79;101228.09;4990406;27;45490;-65
2022/10/25 07:15:46;;;;;;;;;3.00;3.00;;;;;15.78;74.15;101218.53;4989647;27;45328;-66
2022/10/25 07:18:12;;;;;;;;;3.00;3.00;;;;;15.87;74.09;101231.66;4989172;27;46249;-65
2022/10/25 07:20:37;;;;;;;;;3.00;2.00;;;;;15.95;73.75;101231.53;4989363;27;45376;-65
2022/10/25 07:23:03;;;;;;;;;3.00;2.00;;;;;16.00;73.03;101234.13;4989624;27;45350;-63
2022/10/25 07:25:28;;;;;;;;;2.67;2.67;;;;;16.03;73.09;101245.53;4989755;27;45283;-67
2022/10/25 07:27:54;;;;;;;;;3.00;2.00;;;;;16.08;73.13;101241.06;4973835;27;47445;-66
2022/10/25 07:30:19;;;;;;;;;7.33;3.00;;;;;16.16;72.79;101250.66;4992186;27;45645;-66
2022/10/25 07:32:45;;;;;;;;;7.00;2.00;;;;;16.19;72.76;101248.00;4974196;27;45404;-67
2022/10/25 07:35:10;;;;;;;;;2.00;0.67;;;;;16.23;72.32;101241.75;4992729;27;45378;-65
2022/10/25 07:37:36;;;;;;;;;3.00;2.00;;;;;16.37;72.11;101241.56;4974380;27;47570;-65
2022/10/25 07:40:02;;;;;;;;;5.33;2.67;;;;;16.44;71.86;101253.78;4974610;27;45442;-65
2022/10/25 07:42:27;;;;;;;;;5.33;3.00;;;;;16.36;72.12;101245.97;4995676;27;45201;-66
2022/10/25 07:44:53;;;;;;;;;2.33;2.00;;;;;16.36;71.83;101255.69;4992834;27;45780;-66
2022/10/25 07:47:18;;;;;;;;;3.67;1.00;;;;;16.39;71.92;101245.94;4991628;27;45478;-65
2022/10/25 07:49:44;;;;;;;;;2.00;1.33;;;;;16.57;71.60;101236.00;4974230;28;45552;-65
2022/10/25 07:52:10;;;;;;;;;6.33;3.00;;;;;16.54;71.03;101221.06;4994994;27;45597;-65
2022/10/25 07:54:36;;;;;;;;;4.00;2.33;;;;;16.52;70.45;101220.22;4996948;27;45587;-65
2022/10/25 07:57:01;;;;;;;;;4.33;4.00;;;;;16.69;70.70;101246.41;4973461;28;45619;-66
2022/10/25 07:59:27;;;;;;;;;3.67;2.67;;;;;16.87;70.54;101255.84;4989742;27;45492;-64
2022/10/25 08:01:52;;;;;;;;;3.00;3.00;;;;;16.94;69.76;101254.84;4973979;28;45536;-65
2022/10/25 08:04:18;;;;;;;;;4.00;4.00;;;;;16.93;69.30;101261.03;4983529;27;45473;-65
2022/10/25 08:06:44;;;;;;;;;4.67;2.67;;;;;16.91;69.99;101250.47;4989265;27;45535;-64
2022/10/25 08:09:09;;;;;;;;;3.00;3.00;;;;;17.04;69.66;101247.66;4974913;28;45410;-66
2022/10/25 08:11:34;;;;;;;;;4.33;3.00;;;;;17.17;69.02;101243.88;4991986;27;45402;-64
2022/10/25 08:14:00;;;;;;;;;3.33;3.00;;;;;17.35;68.95;101248.00;4974670;28;45300;-65
2022/10/25 08:16:25;;;;;;;;;4.67;3.33;;;;;17.43;68.01;101245.19;4975062;28;46740;-64
2022/10/25 08:18:51;;;;;;;;;3.67;3.67;;;;;17.57;67.74;101235.22;4994089;27;45779;-65
2022/10/25 08:21:17;;;;;;;;;4.33;3.67;;;;;17.68;67.14;101243.84;4978588;28;45461;-65
2022/10/25 08:23:43;;;;;;;;;4.00;3.67;;;;;17.79;67.37;101231.22;4975253;27;45968;-66
2022/10/25 08:26:09;;;;;;;;;4.00;4.00;;;;;17.94;66.89;101234.53;4992346;27;45423;-64
2022/10/25 08:28:34;;;;;;;;;5.33;3.00;;;;;18.12;66.06;101230.63;4995252;27;45524;-64
2022/10/25 08:31:03;;;;;;;;;5.00;3.00;;;;;18.22;65.51;101240.09;4992255;27;45860;-65
2022/10/25 08:33:29;;;;;;;;;2.33;2.33;;;;;18.35;64.91;101224.81;4974302;28;45330;-65
2022/10/25 08:35:59;;;;;;;;;5.00;3.67;;;;;18.62;64.40;101234.78;4993959;27;45443;-66
2022/10/25 08:38:24;;;;;;;;;3.33;3.33;;;;;18.72;63.43;101239.88;4992280;27;45454;-65
2022/10/25 08:40:56;;;;;;;;;3.00;3.00;;;;;18.77;63.49;101235.34;4992103;27;45498;-65
2022/10/25 08:43:40;;;;;;;;;3.00;3.00;;;;;18.83;63.21;101236.06;4993756;27;45406;-68
2022/10/25 08:46:16;;;;;;;;;4.33;4.00;;;;;18.97;62.01;101225.13;4995741;27;46394;-65
2022/10/25 08:48:49;;;;;;;;;7.00;3.33;;;;;19.13;61.60;101232.72;4995837;27;45402;-65
2022/10/25 08:51:28;;;;;;;;;3.00;1.33;;;;;19.31;60.98;101228.69;4995873;27;45519;-63
2022/10/25 08:53:59;;;;;;;;;2.00;2.00;;;;;19.51;60.56;101230.84;4996133;27;45437;-64
2022/10/25 08:56:26;;;;;;;;;3.00;2.00;;;;;19.78;58.81;101232.75;4978173;28;45624;-64
2022/10/25 08:58:58;;;;;;;;;4.00;1.00;;;;;19.98;59.02;101228.63;4993190;27;45390;-65
2022/10/25 09:01:29;;;;;;;;;5.00;2.00;;;;;20.12;57.32;101235.31;4991739;27;45311;-67
2022/10/25 09:03:57;;;;;;;;;2.00;2.00;;;;;20.38;57.49;101233.63;4990659;27;45564;-65
2022/10/25 09:06:41;;;;;;;;;3.00;2.00;;;;;20.75;56.02;101232.50;4986445;27;46434;-64
2022/10/25 09:09:32;;;;;;;;;2.67;1.67;;;;;21.37;54.17;101228.63;4960667;28;45340;-64
2022/10/25 09:12:12;;;;;;;;;3.33;2.00;;;;;23.75;49.26;101229.03;4994780;27;45570;-65
2022/10/25 09:14:58;;;;;;;;;3.00;2.00;;;;;26.32;43.84;101220.56;4974062;28;45606;-65
2022/10/25 09:17:37;;;;;;;;;2.25;1.00;;;;;27.89;40.23;101214.84;4991512;27;46275;-67
2022/10/25 09:20:17;;;;;;;;;1.00;1.00;;;;;29.14;38.05;101169.84;4973531;27;45744;-63
2022/10/25 09:22:49;;;;;;;;;1.00;1.00;;;;;30.30;35.23;101197.63;4990913;27;45520;-63
2022/10/25 09:25:26;;;;;;;;;3.75;1.75;;;;;31.26;34.52;101196.69;4991733;27;45733;-63
2022/10/25 09:27:59;;;;;;;;;2.00;1.00;;;;;32.07;33.13;101190.25;4984823;27;46215;-66
2022/10/25 09:30:26;;;;;;;;;0.80;0.80;;;;;32.82;30.91;101184.97;4989576;27;45405;-64
2022/10/25 09:33:00;;;;;;;;;3.20;1.00;;;;;33.26;30.62;101183.91;4994989;27;45403;-64
2022/10/25 09:35:43;;;;;;;;;0.80;0.00;;;;;33.78;29.64;101194.78;4994205;27;45495;-65
2022/10/25 09:38:20;;;;;;;;;0.20;0.20;;;;;33.92;29.49;101177.25;4978136;27;45783;-64
2022/10/25 09:40:50;;;;;;;;;0.40;0.00;;;;;34.35;28.12;101189.69;4990836;27;45393;-64
2022/10/25 09:43:25;;;;;;;;;0.20;0.20;;;;;34.71;29.00;101192.75;4990818;27;45328;-65
2022/10/25 09:45:58;;;;;;;;;5.00;5.00;;;;;35.66;27.52;101187.31;4973339;27;46053;-65
2022/10/25 09:48:49;;;;;;;;;4.80;3.00;;;;;36.17;26.39;101195.13;4974871;27;47000;-65
2022/10/25 09:51:36;;;;;;;;;1.60;1.60;;;;;36.77;25.39;101187.25;4991503;27;45762;-66
2022/10/25 09:54:14;;;;;;;;;0.20;0.20;;;;;37.10;24.13;101188.38;4973541;28;45815;-65
2022/10/25 09:56:39;;;;;;;;;1.80;0.00;;;;;35.90;25.42;101204.97;4992906;27;45604;-66
2022/10/25 09:59:05;;;;;;;;;0.25;0.25;;;;;35.86;24.38;101193.53;4994381;27;45957;-66
2022/10/25 10:01:35;;;;;;;;;0.00;0.00;;;;;34.49;26.66;101197.44;4991735;27;45457;-65
2022/10/25 10:04:31;;;;;;;;;0.00;0.00;;;;;32.96;28.10;101179.28;4984605;27;45309;-65
2022/10/25 10:07:07;;;;;;;;;1.60;0.60;;;;;30.67;30.91;101194.84;4987689;27;45446;-65
2022/10/25 10:09:36;;;;;;;;;0.80;0.00;;;;;32.06;29.84;101182.25;4971275;28;46056;-63
2022/10/25 10:12:05;;;;;;;;;1.40;0.20;;;;;34.04;27.70;101184.28;4962745;27;45538;-64
2022/10/25 10:14:39;;;;;;;;;1.00;0.80;;;;;35.57;25.33;101177.31;4983558;27;45606;-64
2022/10/25 10:17:10;;;;;;;;;0.00;0.00;;;;;36.02;25.25;101186.56;4975208;27;45703;-65
2022/10/25 10:19:36;;;;;;;;;0.60;0.60;;;;;35.88;24.29;101180.63;4970555;27;45441;-66
2022/10/25 10:22:08;;;;;;;;;0.25;0.25;;;;;35.84;25.33;101168.31;4970565;27;45545;-65
2022/10/25 10:24:39;;;;;;;;;2.00;0.00;;;;;36.42;24.18;101182.59;4952738;28;45443;-65
2022/10/25 10:27:08;;;;;;;;;1.00;1.00;;;;;36.93;24.54;101176.47;4944360;28;45966;-65
2022/10/25 10:30:16;;;;;;;;;1.20;1.20;;;;;37.95;23.11;101177.59;4970191;28;46563;-65
2022/10/25 10:32:42;;;;;;;;;2.60;1.00;;;;;38.51;22.79;101177.09;4967833;27;45542;-65
2022/10/25 10:35:29;;;;;;;;;2.20;1.20;;;;;38.56;22.40;101174.72;4971074;28;45559;-66
2022/10/25 10:38:25;;;;;;;;;3.20;2.40;;;;;37.77;22.61;101180.44;4973601;28;45639;-67
2022/10/25 10:40:54;;;;;;;;;3.40;1.00;;;;;37.28;22.70;101168.34;4970526;28;46325;-65
2022/10/25 10:43:30;;;;;;;;;1.00;1.00;;;;;37.75;23.53;101141.50;4976561;27;45347;-62
2022/10/25 10:46:07;;;;;;;;;3.00;3.00;;;;;38.56;21.39;101169.25;4981846;27;45753;-64
2022/10/25 10:48:35;;;;;;;;;3.60;3.60;;;;;38.05;22.46;101169.28;4981128;27;45547;-64
2022/10/25 10:51:02;;;;;;;;;1.80;1.40;;;;;37.34;22.81;101175.91;4971078;28;47601;-65
2022/10/25 10:53:31;;;;;;;;;1.00;1.00;;;;;37.26;23.04;101173.16;4987345;27;45334;-65
2022/10/25 10:56:00;;;;;;;;;2.20;1.60;;;;;37.08;23.65;101167.72;4962645;28;45737;-65
2022/10/25 10:58:38;;;;;;;;;1.20;1.20;;;;;37.78;22.38;101151.25;4970718;28;45574;-65
2022/10/25 11:01:12;;;;;;;;;1.40;1.40;;;;;38.29;21.92;101152.09;4983217;27;45598;-65
2022/10/25 11:03:41;;;;;;;;;3.00;2.20;;;;;38.43;22.21;101152.47;4977145;27;45821;-65
2022/10/25 11:06:14;;;;;;;;;2.60;1.20;;;;;38.81;21.22;101159.16;4968327;28;45364;-64
2022/10/25 11:08:42;;;;;;;;;2.00;1.40;;;;;37.48;23.26;101158.06;4994176;27;45462;-65
2022/10/25 11:11:19;;;;;;;;;2.00;2.00;;;;;38.18;22.27;101144.19;4993535;27;45383;-66
2022/10/25 11:13:55;;;;;;;;;3.00;1.60;;;;;39.08;21.61;101140.69;4990639;27;45934;-65
2022/10/25 11:16:58;;;;;;;;;2.00;2.00;;;;;39.04;21.42;101140.19;4980920;27;45751;-64
2022/10/25 11:19:41;;;;;;;;;3.20;2.00;;;;;38.71;21.91;101142.91;4980852;27;45434;-65
2022/10/25 11:22:30;;;;;;;;;3.20;3.00;;;;;38.29;21.87;101141.13;4988121;27;45672;-64
2022/10/25 11:25:11;;;;;;;;;2.60;2.00;;;;;38.53;22.33;101128.53;4996109;27;45450;-75
2022/10/25 11:27:48;;;;;;;;;2.00;2.00;;;;;39.44;21.79;101128.28;4995193;27;45312;-62
2022/10/25 11:30:18;;;;;;;;;2.40;2.00;;;;;39.07;21.76;101128.03;4992374;27;45567;-63
2022/10/25 11:33:05;;;;;;;;;4.80;2.40;;;;;39.06;21.51;101129.03;4987871;27;46390;-62
2022/10/25 11:35:52;;;;;;;;;6.00;3.20;;;;;38.73;21.85;101126.34;4968117;28;45414;-62
2022/10/25 11:38:51;;;;;;;;;3.40;2.20;;;;;35.39;24.41;101135.50;4990443;27;45547;-62